Time;durP1;ratioP1;P1;durP2;ratioP2;P2;SDS_P1;SDS_P2;PMS_P1;PMS_P2;Temp;Humidity;BMP_temperature;BMP_pressure;BME280_temperature;BME280_humidity;BME280_pressure;Samples;Min_cycle;Max_cycle;Signal;HPM_P1;HPM_P2
2023/03/06 00:01:56;;;;;;;;;;;4.30;99.90;;;;;;5049580;28;19921;-64
2023/03/06 00:04:21;;;;;;;;;;;4.30;99.90;;;;;;5047865;28;19913;-64
2023/03/06 00:06:48;;;;;;;;;;;4.30;99.90;;;;;;5051604;28;19920;-62
2023/03/06 00:09:14;;;;;;;;;;;4.20;99.90;;;;;;5040335;28;19913;-64
2023/03/06 00:11:39;;;;;;;;;;;4.10;99.90;;;;;;5038818;28;19940;-63
2023/03/06 00:14:05;;;;;;;;;;;4.10;99.90;;;;;;5047202;28;20384;-63
2023/03/06 00:16:30;;;;;;;;;;;4.10;99.90;;;;;;5049693;28;19920;-63
2023/03/06 00:18:56;;;;;;;;;;;4.00;99.90;;;;;;5049262;28;19999;-63
2023/03/06 00:21:21;;;;;;;;;;;3.90;99.90;;;;;;5044693;28;19921;-64
2023/03/06 00:23:47;;;;;;;;;;;3.80;99.90;;;;;;5051445;28;19917;-63
2023/03/06 00:26:12;;;;;;;;;;;3.70;99.90;;;;;;5046023;28;19913;-63
2023/03/06 00:28:38;;;;;;;;;;;3.60;99.90;;;;;;5049018;28;19920;-62
2023/03/06 00:31:04;;;;;;;;;;;3.50;99.90;;;;;;5047578;28;19913;-62
2023/03/06 00:33:29;;;;;;;;;;;3.40;99.90;;;;;;5048694;28;19920;-62
2023/03/06 00:35:55;;;;;;;;;;;3.30;99.90;;;;;;5049315;28;19912;-62
2023/03/06 00:38:20;;;;;;;;;;;3.20;99.90;;;;;;5048669;28;20796;-63
2023/03/06 00:40:45;;;;;;;;;;;3.00;99.90;;;;;;5054494;28;19936;-62
2023/03/06 00:43:11;;;;;;;;;;;3.00;99.90;;;;;;5047829;28;19968;-63
2023/03/06 00:45:37;;;;;;;;;;;2.90;99.90;;;;;;5052634;28;19916;-62
2023/03/06 00:48:02;;;;;;;;;;;2.80;99.90;;;;;;5049890;28;19919;-63
2023/03/06 00:50:28;;;;;;;;;;;2.80;99.90;;;;;;5052812;28;19917;-62
2023/03/06 00:52:53;;;;;;;;;;;2.70;99.90;;;;;;5051584;28;20007;-62
2023/03/06 00:55:19;;;;;;;;;;;2.70;99.90;;;;;;5061898;28;20296;-63
2023/03/06 00:57:44;;;;;;;;;;;2.70;99.90;;;;;;5054273;28;20065;-62
2023/03/06 01:00:11;;;;;;;;;;;2.60;99.90;;;;;;5050408;28;20284;-63
2023/03/06 01:02:36;;;;;;;;;;;2.60;99.90;;;;;;5051548;28;19919;-63
2023/03/06 01:05:02;;;;;;;;;;;2.50;99.90;;;;;;5050733;28;19913;-62
2023/03/06 01:07:28;;;;;;;;;;;2.50;99.90;;;;;;5052292;28;19919;-63
2023/03/06 01:09:54;;;;;;;;;;;2.40;99.90;;;;;;5048576;28;19913;-62
2023/03/06 01:12:19;;;;;;;;;;;2.40;99.90;;;;;;5048719;28;20386;-62
2023/03/06 01:14:45;;;;;;;;;;;2.30;99.90;;;;;;5055689;28;19924;-63
2023/03/06 01:17:10;;;;;;;;;;;2.30;99.90;;;;;;5050472;28;19974;-63
2023/03/06 01:19:36;;;;;;;;;;;2.30;99.90;;;;;;5050320;28;19919;-63
2023/03/06 01:22:01;;;;;;;;;;;2.30;99.90;;;;;;5047124;28;19932;-63
2023/03/06 01:24:27;;;;;;;;;;;2.30;99.90;;;;;;5067433;28;19916;-63
2023/03/06 01:26:52;;;;;;;;;;;2.30;99.90;;;;;;5050796;28;19921;-64
2023/03/06 01:29:18;;;;;;;;;;;2.30;99.90;;;;;;5050565;28;20288;-63
2023/03/06 01:31:44;;;;;;;;;;;2.40;99.90;;;;;;5051507;28;19913;-63
2023/03/06 01:34:09;;;;;;;;;;;2.50;99.90;;;;;;5049932;28;19966;-63
2023/03/06 01:36:35;;;;;;;;;;;2.50;99.90;;;;;;5049851;28;19935;-63
2023/03/06 01:39:02;;;;;;;;;;;2.60;99.90;;;;;;5051098;28;20003;-63
2023/03/06 01:41:28;;;;;;;;;;;2.60;99.90;;;;;;5050490;28;20384;-64
2023/03/06 01:43:53;;;;;;;;;;;2.70;99.90;;;;;;5049662;28;19919;-64
2023/03/06 01:46:19;;;;;;;;;;;2.70;99.90;;;;;;5049572;28;20291;-63
2023/03/06 01:48:46;;;;;;;;;;;2.70;99.90;;;;;;5051399;28;20399;-62
2023/03/06 01:51:11;;;;;;;;;;;2.80;99.90;;;;;;5045153;28;20268;-64
2023/03/06 01:53:37;;;;;;;;;;;2.80;99.90;;;;;;5044765;28;19928;-62
2023/03/06 01:56:03;;;;;;;;;;;2.90;99.90;;;;;;5043341;28;19943;-61
2023/03/06 01:58:28;;;;;;;;;;;2.90;99.90;;;;;;5050355;28;19920;-63
2023/03/06 02:00:54;;;;;;;;;;;2.90;99.90;;;;;;5050962;28;19963;-62
2023/03/06 02:03:21;;;;;;;;;;;2.90;99.90;;;;;;5048249;28;20363;-62
2023/03/06 02:05:46;;;;;;;;;;;3.00;99.90;;;;;;5051641;28;19912;-63
2023/03/06 02:08:13;;;;;;;;;;;3.00;99.90;;;;;;5042996;28;19917;-63
2023/03/06 02:10:48;;;;;;;;;;;3.00;99.90;;;;;;5050940;28;19975;-62
2023/03/06 02:13:14;;;;;;;;;;;3.00;99.90;;;;;;5044461;28;19922;-63
2023/03/06 02:15:39;;;;;;;;;;;3.10;99.90;;;;;;5051424;28;19913;-63
2023/03/06 02:18:05;;;;;;;;;;;3.10;99.90;;;;;;5046343;28;20364;-62
2023/03/06 02:20:35;;;;;;;;;;;3.00;99.90;;;;;;5048943;28;20353;-62
2023/03/06 02:23:01;;;;;;;;;;;3.10;99.90;;;;;;5042960;28;19958;-63
2023/03/06 02:25:26;;;;;;;;;;;3.00;99.90;;;;;;5050467;28;20287;-62
2023/03/06 02:27:52;;;;;;;;;;;3.10;99.90;;;;;;5049596;28;19921;-62
2023/03/06 02:30:17;;;;;;;;;;;3.10;99.90;;;;;;5047277;28;19920;-63
2023/03/06 02:32:43;;;;;;;;;;;3.10;99.90;;;;;;5050953;28;19924;-63
2023/03/06 02:35:20;;;;;;;;;;;3.10;99.90;;;;;;5047973;28;20004;-62
2023/03/06 02:37:46;;;;;;;;;;;3.10;99.90;;;;;;5048238;28;19916;-63
2023/03/06 02:40:13;;;;;;;;;;;3.10;99.90;;;;;;5046914;28;19924;-63
2023/03/06 02:42:44;;;;;;;;;;;3.10;99.90;;;;;;5047609;28;19956;-63
2023/03/06 02:45:11;;;;;;;;;;;3.10;99.90;;;;;;5048998;28;19919;-63
2023/03/06 02:47:36;;;;;;;;;;;3.10;99.90;;;;;;5050629;28;19913;-63
2023/03/06 02:50:02;;;;;;;;;;;3.10;99.90;;;;;;5048613;28;19938;-62
2023/03/06 02:52:27;;;;;;;;;;;3.00;99.90;;;;;;5050674;28;19913;-62
2023/03/06 02:54:53;;;;;;;;;;;3.00;99.90;;;;;;5048986;28;20345;-62
2023/03/06 02:57:18;;;;;;;;;;;2.90;99.90;;;;;;5048122;28;19938;-63
2023/03/06 02:59:44;;;;;;;;;;;3.00;99.90;;;;;;5050019;28;20276;-62
2023/03/06 03:02:09;;;;;;;;;;;2.90;99.90;;;;;;5047371;28;20388;-61
2023/03/06 03:04:35;;;;;;;;;;;2.90;99.90;;;;;;5050011;28;19952;-63
2023/03/06 03:07:01;;;;;;;;;;;2.90;99.90;;;;;;5047220;28;19912;-62
2023/03/06 03:09:27;;;;;;;;;;;2.90;99.90;;;;;;5050441;28;19913;-62
2023/03/06 03:11:52;;;;;;;;;;;2.90;99.90;;;;;;5049401;28;19913;-63
2023/03/06 03:14:18;;;;;;;;;;;3.00;99.90;;;;;;5048446;28;19933;-63
2023/03/06 03:16:44;;;;;;;;;;;3.00;99.90;;;;;;5049866;28;19916;-63
2023/03/06 03:19:09;;;;;;;;;;;3.00;99.90;;;;;;5047220;28;19912;-63
2023/03/06 03:21:35;;;;;;;;;;;3.00;99.90;;;;;;5048129;28;19924;-62
2023/03/06 03:24:01;;;;;;;;;;;3.00;99.90;;;;;;5048969;28;19967;-63
2023/03/06 03:26:26;;;;;;;;;;;3.00;99.90;;;;;;5038382;28;19919;-62
2023/03/06 03:28:52;;;;;;;;;;;3.00;99.90;;;;;;5062225;28;19921;-63
2023/03/06 03:31:17;;;;;;;;;;;3.00;99.90;;;;;;5038643;28;19979;-62
2023/03/06 03:33:43;;;;;;;;;;;3.00;99.90;;;;;;5048948;28;19912;-63
2023/03/06 03:36:08;;;;;;;;;;;3.10;99.90;;;;;;5048370;28;19913;-63
2023/03/06 03:38:34;;;;;;;;;;;3.10;99.90;;;;;;5049292;28;19995;-64
2023/03/06 03:41:00;;;;;;;;;;;3.10;99.90;;;;;;5048474;28;19921;-60
2023/03/06 03:43:25;;;;;;;;;;;3.10;99.90;;;;;;5045731;28;20355;-63
2023/03/06 03:45:51;;;;;;;;;;;3.10;99.90;;;;;;5049709;28;19921;-62
2023/03/06 03:48:17;;;;;;;;;;;3.10;99.90;;;;;;5047990;28;19912;-63
2023/03/06 03:50:42;;;;;;;;;;;3.10;99.90;;;;;;5048905;28;20043;-63
2023/03/06 03:53:08;;;;;;;;;;;3.10;99.90;;;;;;5047654;28;20432;-63
2023/03/06 03:55:33;;;;;;;;;;;3.10;99.90;;;;;;5047605;28;20371;-63
2023/03/06 03:57:59;;;;;;;;;;;3.20;99.90;;;;;;5047738;28;19920;-63
2023/03/06 04:00:24;;;;;;;;;;;3.20;99.90;;;;;;5048152;28;19921;-63
2023/03/06 04:02:50;;;;;;;;;;;3.20;99.90;;;;;;5049066;28;20323;-63
2023/03/06 04:05:15;;;;;;;;;;;3.10;99.90;;;;;;5048158;28;19935;-63
2023/03/06 04:07:41;;;;;;;;;;;3.10;99.90;;;;;;5049345;28;20113;-64
2023/03/06 04:10:08;;;;;;;;;;;3.10;99.90;;;;;;5047657;28;19913;-64
2023/03/06 04:12:33;;;;;;;;;;;3.00;99.90;;;;;;5035305;28;19920;-62
2023/03/06 04:14:59;;;;;;;;;;;3.00;99.90;;;;;;5047310;28;19913;-63
2023/03/06 04:17:25;;;;;;;;;;;3.00;99.90;;;;;;5051732;28;19913;-62
2023/03/06 04:19:50;;;;;;;;;;;2.90;99.90;;;;;;5051565;28;19923;-62
2023/03/06 04:22:16;;;;;;;;;;;2.80;99.90;;;;;;5047087;28;19917;-62
2023/03/06 04:24:41;;;;;;;;;;;2.70;99.90;;;;;;5040953;28;19924;-62
2023/03/06 04:27:07;;;;;;;;;;;2.60;99.90;;;;;;5050775;28;19995;-63
2023/03/06 04:29:32;;;;;;;;;;;2.60;99.90;;;;;;5047524;28;19913;-63
2023/03/06 04:31:58;;;;;;;;;;;2.60;99.90;;;;;;5049628;28;19913;-63
2023/03/06 04:34:23;;;;;;;;;;;2.50;99.90;;;;;;5046735;28;19919;-63
2023/03/06 04:36:49;;;;;;;;;;;2.50;99.90;;;;;;5045581;28;19913;-63
2023/03/06 04:39:15;;;;;;;;;;;2.40;99.90;;;;;;5052297;28;19913;-63
2023/03/06 04:41:41;;;;;;;;;;;2.30;99.90;;;;;;5046778;28;19949;-63
2023/03/06 04:44:06;;;;;;;;;;;2.30;99.90;;;;;;5050540;28;19966;-63
2023/03/06 04:46:32;;;;;;;;;;;2.40;99.90;;;;;;5052735;28;19917;-63
2023/03/06 04:48:58;;;;;;;;;;;2.40;99.90;;;;;;5052744;28;20004;-63
2023/03/06 04:51:24;;;;;;;;;;;2.30;99.90;;;;;;5048275;28;19920;-63
2023/03/06 04:53:49;;;;;;;;;;;2.40;99.90;;;;;;5052482;28;20310;-62
2023/03/06 04:56:15;;;;;;;;;;;2.30;99.90;;;;;;5055577;28;19932;-64
2023/03/06 04:58:41;;;;;;;;;;;2.30;99.90;;;;;;5051609;28;19920;-63
2023/03/06 05:01:07;;;;;;;;;;;2.30;99.90;;;;;;5046917;28;20412;-62
2023/03/06 05:03:32;;;;;;;;;;;2.40;99.90;;;;;;5051025;28;19913;-62
2023/03/06 05:05:58;;;;;;;;;;;2.40;99.90;;;;;;5043286;28;20055;-63
2023/03/06 05:08:23;;;;;;;;;;;2.50;99.90;;;;;;5048386;28;19920;-63
2023/03/06 05:10:56;;;;;;;;;;;2.60;99.90;;;;;;5067553;28;19919;-63
2023/03/06 05:13:22;;;;;;;;;;;2.80;99.90;;;;;;5065254;28;20494;-62
2023/03/06 05:15:47;;;;;;;;;;;2.90;99.90;;;;;;5051159;28;20042;-63
2023/03/06 05:18:13;;;;;;;;;;;3.10;99.90;;;;;;5049769;28;19913;-63
2023/03/06 05:20:38;;;;;;;;;;;3.10;99.90;;;;;;5048537;28;20363;-63
2023/03/06 05:23:04;;;;;;;;;;;3.10;99.90;;;;;;5049217;28;19913;-62
2023/03/06 05:25:29;;;;;;;;;;;3.10;99.90;;;;;;5048266;28;19920;-62
2023/03/06 05:27:55;;;;;;;;;;;3.10;99.90;;;;;;5051462;28;20379;-63
2023/03/06 05:30:22;;;;;;;;;;;3.10;99.90;;;;;;5044075;28;20363;-62
2023/03/06 05:32:47;;;;;;;;;;;3.20;99.90;;;;;;5052022;28;19920;-62
2023/03/06 05:35:20;;;;;;;;;;;3.20;99.90;;;;;;5049254;28;19913;-63
2023/03/06 05:37:46;;;;;;;;;;;3.10;99.90;;;;;;5051104;28;19963;-62
2023/03/06 05:40:12;;;;;;;;;;;2.90;99.90;;;;;;5049748;28;20387;-63
2023/03/06 05:42:37;;;;;;;;;;;2.80;99.90;;;;;;5051303;28;19970;-63
2023/03/06 05:45:04;;;;;;;;;;;2.60;99.90;;;;;;5049860;28;20335;-63
2023/03/06 05:47:30;;;;;;;;;;;2.50;99.90;;;;;;5050054;28;19912;-62
2023/03/06 05:49:55;;;;;;;;;;;2.50;99.90;;;;;;5051540;28;20279;-64
2023/03/06 05:52:21;;;;;;;;;;;2.40;99.90;;;;;;5048982;28;19999;-63
2023/03/06 05:54:50;;;;;;;;;;;2.50;99.90;;;;;;5051476;28;19951;-63
2023/03/06 05:57:17;;;;;;;;;;;2.50;99.90;;;;;;5045426;28;20424;-62
2023/03/06 05:59:43;;;;;;;;;;;2.50;99.90;;;;;;5051266;28;20257;-63
2023/03/06 06:02:08;;;;;;;;;;;2.40;99.90;;;;;;5047985;28;20391;-63
2023/03/06 06:04:34;;;;;;;;;;;2.40;99.90;;;;;;5049900;28;19920;-62
2023/03/06 06:06:59;;;;;;;;;;;2.40;99.90;;;;;;5051288;28;19919;-63
2023/03/06 06:09:25;;;;;;;;;;;2.50;99.90;;;;;;5049530;28;19920;-63
2023/03/06 06:11:52;;;;;;;;;;;2.60;99.90;;;;;;5045758;28;19913;-63
2023/03/06 06:14:18;;;;;;;;;;;2.60;99.90;;;;;;5049129;28;19913;-63
2023/03/06 06:16:43;;;;;;;;;;;2.70;99.90;;;;;;5051027;28;19923;-64
2023/03/06 06:19:09;;;;;;;;;;;2.80;99.90;;;;;;5045227;28;20279;-64
2023/03/06 06:21:34;;;;;;;;;;;2.80;99.90;;;;;;5048356;28;19921;-64
2023/03/06 06:24:00;;;;;;;;;;;2.80;99.90;;;;;;5050840;28;20249;-63
2023/03/06 06:26:25;;;;;;;;;;;2.80;99.90;;;;;;5048630;28;19913;-63
2023/03/06 06:28:51;;;;;;;;;;;2.90;99.90;;;;;;5045630;28;19952;-62
2023/03/06 06:31:16;;;;;;;;;;;2.90;99.90;;;;;;5049066;28;19913;-63
2023/03/06 06:33:42;;;;;;;;;;;3.00;99.90;;;;;;5050131;28;20406;-63
2023/03/06 06:36:17;;;;;;;;;;;3.10;99.90;;;;;;5039133;28;19966;-63
2023/03/06 06:38:43;;;;;;;;;;;3.20;99.90;;;;;;5050571;28;19948;-63
2023/03/06 06:41:09;;;;;;;;;;;3.30;99.90;;;;;;5047725;28;19963;-64
2023/03/06 06:43:34;;;;;;;;;;;3.50;99.90;;;;;;5044435;28;19952;-63
2023/03/06 06:46:00;;;;;;;;;;;3.50;99.90;;;;;;5041024;28;19920;-62
2023/03/06 06:48:25;;;;;;;;;;;3.60;99.90;;;;;;5046783;28;19948;-63
2023/03/06 06:50:55;;;;;;;;;;;3.60;99.90;;;;;;5049265;28;19920;-63
2023/03/06 06:53:20;;;;;;;;;;;3.80;99.90;;;;;;5047676;28;20327;-62
2023/03/06 06:55:46;;;;;;;;;;;3.80;99.90;;;;;;5051042;28;19908;-63
2023/03/06 06:58:13;;;;;;;;;;;3.80;99.90;;;;;;5042124;28;19913;-63
2023/03/06 07:00:38;;;;;;;;;;;3.90;99.90;;;;;;5051452;28;20010;-63
2023/03/06 07:03:04;;;;;;;;;;;3.90;99.90;;;;;;5048070;28;20017;-63
2023/03/06 07:05:29;;;;;;;;;;;4.00;99.90;;;;;;5048621;28;19917;-63
2023/03/06 07:07:55;;;;;;;;;;;4.10;99.90;;;;;;5049282;28;19924;-64
2023/03/06 07:10:20;;;;;;;;;;;4.10;99.90;;;;;;5051169;28;19912;-62
2023/03/06 07:12:46;;;;;;;;;;;4.20;99.90;;;;;;5050012;28;19923;-62
2023/03/06 07:15:13;;;;;;;;;;;4.20;99.90;;;;;;5048284;28;19919;-63
2023/03/06 07:17:39;;;;;;;;;;;4.30;99.90;;;;;;5050258;28;19951;-63
2023/03/06 07:20:05;;;;;;;;;;;4.40;99.90;;;;;;5047967;28;20419;-63
2023/03/06 07:22:32;;;;;;;;;;;4.40;99.90;;;;;;5048904;28;20386;-63
2023/03/06 07:24:59;;;;;;;;;;;4.40;99.90;;;;;;5049573;28;19913;-63
2023/03/06 07:27:25;;;;;;;;;;;4.50;99.90;;;;;;5045291;28;19917;-63
2023/03/06 07:29:51;;;;;;;;;;;4.50;99.90;;;;;;5044780;28;20303;-62
2023/03/06 07:32:16;;;;;;;;;;;4.50;99.90;;;;;;5045888;28;19919;-63
2023/03/06 07:34:43;;;;;;;;;;;4.50;99.90;;;;;;5049934;28;19924;-63
2023/03/06 07:37:09;;;;;;;;;;;4.50;99.90;;;;;;5047822;28;19952;-63
2023/03/06 07:39:34;;;;;;;;;;;4.50;99.90;;;;;;5049214;28;19915;-62
2023/03/06 07:42:00;;;;;;;;;;;4.60;99.90;;;;;;5049191;28;19921;-64
2023/03/06 07:44:26;;;;;;;;;;;4.60;99.90;;;;;;5045231;28;19928;-64
2023/03/06 07:46:51;;;;;;;;;;;4.70;99.90;;;;;;5044813;28;19913;-63
2023/03/06 07:49:17;;;;;;;;;;;4.80;99.90;;;;;;5042238;28;20454;-63
2023/03/06 07:51:42;;;;;;;;;;;4.80;99.90;;;;;;5048710;28;19921;-63
2023/03/06 07:54:08;;;;;;;;;;;4.80;99.90;;;;;;5047228;28;19920;-63
2023/03/06 07:56:33;;;;;;;;;;;4.90;99.90;;;;;;5046153;28;19921;-63
2023/03/06 07:58:59;;;;;;;;;;;4.90;99.90;;;;;;5048123;28;19913;-64
2023/03/06 08:01:25;;;;;;;;;;;5.00;99.90;;;;;;5044550;28;20011;-64
2023/03/06 08:03:51;;;;;;;;;;;5.00;99.90;;;;;;5049667;28;19984;-62
2023/03/06 08:06:18;;;;;;;;;;;5.10;99.90;;;;;;5041920;28;19927;-63
2023/03/06 08:08:44;;;;;;;;;;;5.20;99.90;;;;;;5040894;28;19920;-63
2023/03/06 08:11:11;;;;;;;;;;;5.20;99.90;;;;;;5046121;28;19978;-61
2023/03/06 08:13:37;;;;;;;;;;;5.20;99.90;;;;;;5042724;28;19921;-64
2023/03/06 08:16:02;;;;;;;;;;;5.20;99.90;;;;;;5049177;28;19916;-63
2023/03/06 08:18:28;;;;;;;;;;;5.30;99.90;;;;;;5046277;28;20012;-63
2023/03/06 08:21:04;;;;;;;;;;;5.30;99.90;;;;;;5039370;28;20015;-64
2023/03/06 08:23:30;;;;;;;;;;;5.40;99.90;;;;;;5043400;28;20012;-63
2023/03/06 08:25:59;;;;;;;;;;;5.50;99.90;;;;;;5051858;28;20007;-64
2023/03/06 08:28:25;;;;;;;;;;;5.50;99.90;;;;;;5045097;28;19924;-63
2023/03/06 08:30:51;;;;;;;;;;;5.50;99.90;;;;;;5050692;28;19967;-63
2023/03/06 08:33:16;;;;;;;;;;;5.60;99.90;;;;;;5044686;28;19920;-63
2023/03/06 08:35:42;;;;;;;;;;;5.70;99.90;;;;;;5052133;28;19912;-63
2023/03/06 08:38:07;;;;;;;;;;;5.80;99.90;;;;;;5049585;28;19913;-64
2023/03/06 08:40:33;;;;;;;;;;;5.90;99.90;;;;;;5044489;28;19924;-63
2023/03/06 08:42:58;;;;;;;;;;;6.00;99.90;;;;;;5051737;28;19916;-61
2023/03/06 08:45:23;;;;;;;;;;;6.20;99.90;;;;;;5045745;28;19913;-64
2023/03/06 08:47:49;;;;;;;;;;;6.40;99.90;;;;;;5047008;28;19974;-62
2023/03/06 08:50:15;;;;;;;;;;;6.50;99.90;;;;;;5049401;28;19919;-64
2023/03/06 08:52:40;;;;;;;;;;;6.80;99.90;;;;;;5051540;28;19917;-63
2023/03/06 08:55:06;;;;;;;;;;;6.90;99.90;;;;;;5042802;28;19917;-62
2023/03/06 08:57:31;;;;;;;;;;;6.90;99.90;;;;;;5047300;28;20348;-63
2023/03/06 08:59:57;;;;;;;;;;;6.90;99.90;;;;;;5048908;28;20341;-63
2023/03/06 09:02:22;;;;;;;;;;;7.10;99.90;;;;;;5041266;28;19931;-63
2023/03/06 09:04:48;;;;;;;;;;;7.20;99.90;;;;;;5050579;28;19913;-63
2023/03/06 09:07:13;;;;;;;;;;;7.30;99.90;;;;;;5049713;28;19966;-64
2023/03/06 09:09:39;;;;;;;;;;;7.40;99.90;;;;;;5050367;28;19913;-63
2023/03/06 09:12:04;;;;;;;;;;;7.50;99.90;;;;;;5048968;28;19992;-62
2023/03/06 09:14:30;;;;;;;;;;;7.60;99.90;;;;;;5051762;28;19917;-63
2023/03/06 09:16:56;;;;;;;;;;;7.40;99.90;;;;;;5047946;28;19993;-62
2023/03/06 09:19:21;;;;;;;;;;;7.40;99.90;;;;;;5048768;28;20415;-62
2023/03/06 09:21:48;;;;;;;;;;;7.50;99.90;;;;;;5049123;28;19946;-63
2023/03/06 09:24:13;;;;;;;;;;;7.50;99.90;;;;;;5049637;28;20004;-63
2023/03/06 09:26:39;;;;;;;;;;;7.60;99.90;;;;;;5050820;28;20015;-62
2023/03/06 09:29:04;;;;;;;;;;;7.60;99.90;;;;;;5043618;28;19999;-62
2023/03/06 09:31:30;;;;;;;;;;;7.40;99.90;;;;;;5043888;28;20375;-63
2023/03/06 09:33:56;;;;;;;;;;;7.40;99.90;;;;;;5042982;28;19919;-63
2023/03/06 09:36:22;;;;;;;;;;;7.30;99.90;;;;;;5049102;28;19913;-61
2023/03/06 09:38:48;;;;;;;;;;;7.30;99.90;;;;;;5051061;28;20357;-61
2023/03/06 09:41:20;;;;;;;;;;;7.20;99.90;;;;;;5040031;28;20380;-62
2023/03/06 09:43:47;;;;;;;;;;;7.20;99.90;;;;;;5044045;28;19931;-62
2023/03/06 09:46:39;;;;;;;;;;;7.00;99.90;;;;;;5048591;28;19978;-61
2023/03/06 09:49:24;;;;;;;;;;;6.90;99.90;;;;;;5043480;28;19913;-62
2023/03/06 09:52:05;;;;;;;;;;;6.80;99.90;;;;;;5045198;28;20413;-63
2023/03/06 09:54:49;;;;;;;;;;;6.80;99.90;;;;;;5046431;28;20380;-64
2023/03/06 09:57:34;;;;;;;;;;;6.60;99.90;;;;;;5045400;28;19913;-64
2023/03/06 10:00:02;;;;;;;;;;;6.60;99.90;;;;;;5040804;28;19998;-63
2023/03/06 10:02:37;;;;;;;;;;;6.50;99.90;;;;;;5034922;28;19932;-62
2023/03/06 10:05:05;;;;;;;;;;;6.60;99.90;;;;;;5034986;28;19959;-63
2023/03/06 10:07:49;;;;;;;;;;;6.70;99.90;;;;;;5032597;28;20361;-63
2023/03/06 10:10:19;;;;;;;;;;;6.80;99.90;;;;;;5042065;28;19913;-64
2023/03/06 10:12:54;;;;;;;;;;;6.90;99.90;;;;;;5046398;28;19921;-64
2023/03/06 10:15:33;;;;;;;;;;;6.90;99.90;;;;;;5033630;28;19917;-63
2023/03/06 10:17:58;;;;;;;;;;;7.00;99.90;;;;;;5038426;28;19928;-64
2023/03/06 10:20:25;;;;;;;;;;;7.10;99.90;;;;;;5034535;28;19929;-63
2023/03/06 10:23:04;;;;;;;;;;;7.10;99.90;;;;;;5039115;28;19917;-63
2023/03/06 10:25:41;;;;;;;;;;;7.00;99.90;;;;;;5043219;28;19936;-63
2023/03/06 10:28:15;;;;;;;;;;;7.10;99.90;;;;;;5040509;28;19927;-63
2023/03/06 10:30:40;;;;;;;;;;;7.20;99.90;;;;;;5048214;28;19939;-64
2023/03/06 10:33:24;;;;;;;;;;;7.20;99.90;;;;;;5041529;28;20380;-63
2023/03/06 10:35:52;;;;;;;;;;;7.30;99.90;;;;;;5049834;28;19996;-65
2023/03/06 10:38:21;;;;;;;;;;;7.40;99.90;;;;;;5046827;28;19912;-63
2023/03/06 10:40:47;;;;;;;;;;;7.40;99.90;;;;;;5048969;28;19928;-64
2023/03/06 10:43:12;;;;;;;;;;;7.50;99.90;;;;;;5036844;28;19917;-63
2023/03/06 10:45:49;;;;;;;;;;;7.70;99.90;;;;;;5049046;28;20276;-63
2023/03/06 10:48:23;;;;;;;;;;;7.70;99.90;;;;;;5046277;28;19913;-64
2023/03/06 10:50:49;;;;;;;;;;;7.80;99.90;;;;;;5049122;28;19912;-63
2023/03/06 10:53:19;;;;;;;;;;;7.80;99.90;;;;;;5047183;28;19919;-65
2023/03/06 10:55:55;;;;;;;;;;;7.80;99.90;;;;;;5049276;28;19913;-62
2023/03/06 10:58:22;;;;;;;;;;;7.50;99.90;;;;;;5043591;28;20394;-64
2023/03/06 11:00:58;;;;;;;;;;;7.50;99.90;;;;;;5043943;28;20330;-64
2023/03/06 11:03:24;;;;;;;;;;;7.70;99.90;;;;;;5041243;28;19917;-64
2023/03/06 11:06:05;;;;;;;;;;;7.90;99.90;;;;;;5045450;28;20328;-63
2023/03/06 11:08:31;;;;;;;;;;;8.00;99.90;;;;;;5042710;28;19912;-63
2023/03/06 11:11:07;;;;;;;;;;;7.90;99.90;;;;;;5043359;28;20272;-62
2023/03/06 11:13:34;;;;;;;;;;;8.10;99.90;;;;;;5040009;28;19913;-62
2023/03/06 11:16:20;;;;;;;;;;;8.20;99.90;;;;;;5046893;28;19913;-63
2023/03/06 11:18:56;;;;;;;;;;;8.20;99.90;;;;;;5040029;28;19912;-63
2023/03/06 11:21:32;;;;;;;;;;;8.30;99.90;;;;;;5045488;28;19932;-63
2023/03/06 11:24:07;;;;;;;;;;;8.20;99.90;;;;;;5035015;28;19916;-63
2023/03/06 11:26:34;;;;;;;;;;;8.30;99.90;;;;;;5046518;28;20320;-63
2023/03/06 11:29:03;;;;;;;;;;;8.40;99.90;;;;;;5037541;28;20307;-63
2023/03/06 11:31:42;;;;;;;;;;;8.50;99.90;;;;;;5049246;28;19912;-63
2023/03/06 11:34:10;;;;;;;;;;;8.70;99.90;;;;;;5041443;28;20016;-63
2023/03/06 11:36:42;;;;;;;;;;;8.90;99.90;;;;;;5049349;28;19913;-63
2023/03/06 11:39:23;;;;;;;;;;;8.90;99.90;;;;;;5036830;28;19959;-62
2023/03/06 11:41:51;;;;;;;;;;;8.70;99.90;;;;;;5034695;28;20433;-62
2023/03/06 11:44:23;;;;;;;;;;;8.60;99.90;;;;;;5045609;28;19913;-63
2023/03/06 11:46:56;;;;;;;;;;;8.60;99.90;;;;;;5045147;28;19913;-63
2023/03/06 11:49:27;;;;;;;;;;;8.70;99.90;;;;;;5044988;28;19924;-63
2023/03/06 11:52:03;;;;;;;;;;;8.50;99.90;;;;;;5048801;28;20284;-64
2023/03/06 11:54:29;;;;;;;;;;;8.60;99.90;;;;;;5042114;28;19955;-63
2023/03/06 11:56:57;;;;;;;;;;;8.70;99.90;;;;;;5045587;28;19952;-62
2023/03/06 11:59:33;;;;;;;;;;;8.40;99.90;;;;;;5046315;28;20007;-64
2023/03/06 12:02:09;;;;;;;;;;;8.70;99.90;;;;;;5040710;28;19921;-64
2023/03/06 12:04:49;;;;;;;;;;;8.80;99.90;;;;;;5045969;28;19932;-64
2023/03/06 12:07:15;;;;;;;;;;;8.90;99.90;;;;;;5038393;28;19917;-64
2023/03/06 12:09:44;;;;;;;;;;;8.90;99.90;;;;;;5044953;28;19913;-64
2023/03/06 12:12:19;;;;;;;;;;;8.90;99.90;;;;;;5043510;28;20001;-63
2023/03/06 12:14:48;;;;;;;;;;;9.00;99.90;;;;;;5048873;28;19912;-63
2023/03/06 12:17:31;;;;;;;;;;;9.10;99.90;;;;;;5039819;28;20562;-63
2023/03/06 12:19:57;;;;;;;;;;;9.30;99.90;;;;;;5047527;28;19968;-61
2023/03/06 12:22:25;;;;;;;;;;;9.40;99.90;;;;;;5040670;28;20020;-61
2023/03/06 12:25:10;;;;;;;;;;;9.60;99.90;;;;;;5045494;28;19913;-61
2023/03/06 12:27:38;;;;;;;;;;;9.80;99.90;;;;;;5042428;28;19921;-61
2023/03/06 12:30:23;;;;;;;;;;;9.90;99.90;;;;;;5033819;28;19955;-61
2023/03/06 12:32:56;;;;;;;;;;;9.80;99.90;;;;;;5041563;28;19917;-60
2023/03/06 12:35:40;;;;;;;;;;;10.00;99.90;;;;;;5040293;28;19921;-61
2023/03/06 12:38:06;;;;;;;;;;;9.80;99.90;;;;;;5047271;28;19951;-61
2023/03/06 12:40:32;;;;;;;;;;;9.80;99.90;;;;;;5043997;28;19971;-61
2023/03/06 12:43:24;;;;;;;;;;;9.70;99.90;;;;;;5048952;28;19944;-61
2023/03/06 12:45:53;;;;;;;;;;;9.80;99.90;;;;;;5045704;28;19917;-62
2023/03/06 12:48:24;;;;;;;;;;;10.10;99.90;;;;;;5050436;28;20295;-63
2023/03/06 12:50:50;;;;;;;;;;;10.30;99.90;;;;;;5050948;28;19917;-62
2023/03/06 12:53:26;;;;;;;;;;;10.40;99.90;;;;;;5048639;28;20342;-62
2023/03/06 12:55:52;;;;;;;;;;;10.60;99.90;;;;;;5049708;28;20398;-62
2023/03/06 12:58:29;;;;;;;;;;;10.50;99.90;;;;;;5047132;28;19913;-62
2023/03/06 13:01:07;;;;;;;;;;;10.40;99.90;;;;;;5045664;28;19925;-62
2023/03/06 13:03:43;;;;;;;;;;;10.50;99.90;;;;;;5047677;28;19944;-62
2023/03/06 13:06:27;;;;;;;;;;;10.60;99.90;;;;;;5049386;28;20004;-62
2023/03/06 13:09:00;;;;;;;;;;;10.80;99.90;;;;;;5051870;28;20003;-62
2023/03/06 13:11:36;;;;;;;;;;;10.80;99.90;;;;;;5042116;28;19913;-61
2023/03/06 13:14:20;;;;;;;;;;;10.70;99.90;;;;;;5047935;28;20008;-62
2023/03/06 13:16:46;;;;;;;;;;;11.00;99.90;;;;;;5051784;28;19912;-62
2023/03/06 13:19:22;;;;;;;;;;;10.90;99.90;;;;;;5049719;28;19913;-62
2023/03/06 13:21:53;;;;;;;;;;;11.00;99.90;;;;;;5051240;28;20451;-61
2023/03/06 13:24:23;;;;;;;;;;;11.20;99.90;;;;;;5058439;28;19913;-62
2023/03/06 13:26:51;;;;;;;;;;;11.50;99.90;;;;;;5050249;28;20322;-61
2023/03/06 13:29:35;;;;;;;;;;;11.40;99.90;;;;;;5041983;28;20435;-62
2023/03/06 13:32:00;;;;;;;;;;;11.30;99.90;;;;;;5051544;28;19912;-61
2023/03/06 13:34:32;;;;;;;;;;;10.90;99.90;;;;;;5049125;28;19919;-61
2023/03/06 13:37:12;;;;;;;;;;;10.80;99.90;;;;;;5051707;28;20003;-61
2023/03/06 13:39:53;;;;;;;;;;;10.70;99.90;;;;;;5048184;28;19920;-61
2023/03/06 13:42:35;;;;;;;;;;;10.30;99.90;;;;;;5057556;28;19959;-61
2023/03/06 13:45:12;;;;;;;;;;;10.00;99.90;;;;;;5048640;28;19920;-62
2023/03/06 13:47:58;;;;;;;;;;;10.10;99.90;;;;;;5055039;28;19996;-62
2023/03/06 13:50:33;;;;;;;;;;;10.00;99.90;;;;;;5049419;28;20272;-61
2023/03/06 13:53:01;;;;;;;;;;;9.80;99.90;;;;;;5051248;28;19970;-61
2023/03/06 13:55:50;;;;;;;;;;;10.10;99.90;;;;;;5043319;28;19912;-60
2023/03/06 13:58:27;;;;;;;;;;;10.20;99.90;;;;;;5050099;28;19920;-62
2023/03/06 14:01:10;;;;;;;;;;;10.30;99.90;;;;;;5050953;28;19964;-63
2023/03/06 14:03:54;;;;;;;;;;;10.40;99.90;;;;;;5044030;28;19913;-62
2023/03/06 14:06:40;;;;;;;;;;;10.40;99.90;;;;;;5040351;28;19948;-62
2023/03/06 14:09:12;;;;;;;;;;;10.80;99.90;;;;;;5044154;28;20376;-60
2023/03/06 14:11:44;;;;;;;;;;;11.10;99.90;;;;;;5035236;28;20349;-61
2023/03/06 14:14:10;;;;;;;;;;;11.30;99.90;;;;;;5046935;28;19913;-61
2023/03/06 14:16:38;;;;;;;;;;;11.60;99.90;;;;;;5049247;28;19913;-61
2023/03/06 14:19:05;;;;;;;;;;;11.40;99.90;;;;;;5041042;28;19917;-61
2023/03/06 14:21:35;;;;;;;;;;;11.30;99.90;;;;;;5036741;28;19924;-61
2023/03/06 14:24:03;;;;;;;;;;;11.30;99.90;;;;;;5036850;28;19913;-63
2023/03/06 14:26:32;;;;;;;;;;;11.30;99.90;;;;;;5038060;28;19916;-61
2023/03/06 14:29:02;;;;;;;;;;;11.30;99.90;;;;;;5034368;28;19951;-62
2023/03/06 14:31:33;;;;;;;;;;;10.80;99.90;;;;;;5048181;28;19917;-62
2023/03/06 14:33:59;;;;;;;;;;;10.30;99.90;;;;;;5050626;28;19958;-62
2023/03/06 14:36:30;;;;;;;;;;;9.80;99.90;;;;;;5048207;28;20015;-61